createdAt,value
2023-02-22T00:03:36.170Z,6.89
2023-02-22T00:08:30.614Z,6.85
2023-02-22T00:13:25.518Z,6.84
2023-02-22T00:18:18.754Z,6.77
2023-02-22T00:23:19.931Z,6.74
2023-02-22T00:28:12.096Z,6.72
2023-02-22T00:33:06.140Z,6.71
2023-02-22T00:38:00.275Z,6.66
2023-02-22T00:42:52.929Z,6.61
2023-02-22T00:47:44.661Z,6.63
2023-02-22T00:52:37.695Z,6.62
2023-02-22T00:57:29.426Z,6.53
2023-02-22T01:02:21.277Z,6.48
2023-02-22T01:07:14.432Z,6.39
2023-02-22T01:12:06.457Z,6.36
2023-02-22T01:16:58.221Z,6.31
2023-02-22T01:21:50.377Z,6.26
2023-02-22T01:26:50.346Z,6.26
2023-02-22T01:31:44.239Z,6.23
2023-02-22T01:36:35.994Z,6.24
2023-02-22T01:41:27.739Z,6.27
2023-02-22T01:46:21.009Z,6.33
2023-02-22T01:51:41.334Z,6.36
2023-02-22T01:56:37.036Z,6.32
2023-02-22T02:01:29.840Z,6.32
2023-02-22T02:06:22.035Z,6.34
2023-02-22T02:11:14.264Z,6.30
2023-02-22T02:16:06.423Z,6.28
2023-02-22T02:21:39.649Z,6.29
2023-02-22T02:26:49.654Z,6.31
2023-02-22T02:32:00.627Z,6.28
2023-02-22T02:37:26.915Z,6.27
2023-02-22T02:42:23.179Z,6.27
2023-02-22T02:47:24.353Z,6.28
2023-02-22T02:52:20.009Z,6.31
2023-02-22T02:57:11.839Z,6.30
2023-02-22T03:02:13.319Z,6.32
2023-02-22T03:07:39.210Z,6.31
2023-02-22T03:13:05.116Z,6.33
2023-02-22T03:18:07.731Z,6.28
2023-02-22T03:23:07.315Z,6.26
2023-02-22T03:28:03.645Z,6.23
2023-02-22T03:33:09.167Z,6.23
2023-02-22T03:38:04.215Z,6.27
2023-02-22T03:43:02.577Z,6.29
2023-02-22T03:48:04.742Z,6.29
2023-02-22T03:52:59.203Z,6.31
2023-02-22T03:57:56.726Z,6.35
2023-02-22T04:02:49.278Z,6.38
2023-02-22T04:07:42.400Z,6.39
2023-02-22T04:12:34.882Z,6.39
2023-02-22T04:17:26.657Z,6.39
2023-02-22T04:22:19.073Z,6.40
2023-02-22T04:27:10.988Z,6.40
2023-02-22T04:32:02.710Z,6.41
2023-02-22T04:36:54.533Z,6.42
2023-02-22T04:41:47.571Z,6.41
2023-02-22T04:46:39.329Z,6.40
2023-02-22T04:51:31.401Z,6.35
2023-02-22T04:56:23.541Z,6.35
2023-02-22T05:01:16.899Z,6.32
2023-02-22T05:06:11.882Z,6.32
2023-02-22T05:11:03.672Z,6.30
2023-02-22T05:15:55.365Z,6.34
2023-02-22T05:20:47.108Z,6.33
2023-02-22T05:25:38.852Z,6.29
2023-02-22T05:30:34.409Z,6.32
2023-02-22T05:35:26.862Z,6.36
2023-02-22T05:40:26.425Z,6.40
2023-02-22T05:45:20.161Z,6.40
2023-02-22T05:50:14.447Z,6.38
2023-02-22T05:55:07.770Z,6.36
2023-02-22T05:59:59.753Z,6.34
2023-02-22T06:04:53.852Z,6.32
2023-02-22T06:09:45.546Z,6.29
2023-02-22T06:14:37.279Z,6.30
2023-02-22T06:19:29.049Z,6.27
2023-02-22T06:24:21.631Z,6.30
2023-02-22T06:29:13.841Z,6.33
2023-02-22T06:34:05.488Z,6.36
2023-02-22T06:38:57.745Z,6.41
2023-02-22T06:43:49.414Z,6.40
2023-02-22T06:48:41.064Z,6.41
2023-02-22T06:53:32.694Z,6.42
2023-02-22T06:58:24.358Z,6.35
2023-02-22T07:03:16.566Z,6.33
2023-02-22T07:08:11.023Z,6.32
2023-02-22T07:13:04.496Z,6.35
2023-02-22T07:17:56.502Z,6.35
2023-02-22T07:22:49.521Z,6.42
2023-02-22T07:27:42.500Z,6.47
2023-02-22T07:32:34.384Z,6.48
2023-02-22T07:37:26.081Z,6.51
2023-02-22T07:42:17.838Z,6.54
2023-02-22T07:47:12.684Z,6.60
2023-02-22T07:52:04.517Z,6.65
2023-02-22T07:56:56.235Z,6.69
2023-02-22T08:01:50.452Z,6.76
2023-02-22T08:06:42.134Z,6.81
2023-02-22T08:11:33.956Z,6.84
2023-02-22T08:16:25.667Z,6.87
2023-02-22T08:21:18.307Z,6.84
2023-02-22T08:26:15.713Z,6.78
2023-02-22T08:31:08.906Z,6.63
2023-02-22T08:36:01.744Z,6.57
2023-02-22T08:40:53.750Z,6.58
2023-02-22T08:45:46.443Z,6.61
2023-02-22T08:50:38.272Z,6.62
2023-02-22T08:55:36.026Z,6.61
2023-02-22T09:00:29.701Z,6.63
2023-02-22T09:05:21.553Z,6.67
2023-02-22T09:10:15.662Z,6.69
2023-02-22T09:15:07.764Z,6.76
2023-02-22T09:19:59.499Z,6.82
2023-02-22T09:24:52.777Z,6.95
2023-02-22T09:29:44.371Z,7.11
2023-02-22T09:34:36.063Z,7.28
2023-02-22T09:39:27.904Z,7.40
2023-02-22T09:44:28.353Z,7.38
2023-02-22T09:49:39.139Z,7.36
2023-02-22T09:54:38.521Z,7.33
2023-02-22T09:59:37.630Z,7.30
2023-02-22T10:04:47.892Z,7.31
2023-02-22T10:09:43.205Z,7.25
2023-02-22T10:14:44.193Z,7.21
2023-02-22T10:19:57.741Z,7.19
2023-02-22T10:25:04.997Z,7.21
2023-02-22T10:30:23.472Z,7.17
2023-02-22T10:35:37.507Z,7.16
2023-02-22T10:40:32.545Z,7.23
2023-02-22T10:45:28.543Z,7.45
2023-02-22T10:50:21.026Z,7.81
2023-02-22T10:55:16.095Z,8.05
2023-02-22T11:00:30.700Z,8.15
2023-02-22T11:05:38.488Z,8.28
2023-02-22T11:10:38.781Z,8.37
2023-02-22T11:15:31.351Z,8.35
2023-02-22T11:20:29.606Z,8.63
2023-02-22T11:25:28.918Z,9.29
2023-02-22T11:30:29.217Z,9.86
2023-02-22T11:35:32.638Z,10.38
2023-02-22T11:40:24.415Z,10.53
2023-02-22T11:45:23.859Z,10.63
2023-02-22T11:50:38.488Z,10.93
2023-02-22T11:55:43.682Z,10.79
2023-02-22T12:00:58.791Z,10.48
2023-02-22T12:06:24.973Z,10.60
2023-02-22T12:11:23.330Z,10.86
2023-02-22T12:16:32.089Z,10.66
2023-02-22T12:21:26.068Z,10.16
2023-02-22T12:26:40.010Z,9.78
2023-02-22T12:31:41.762Z,9.55
2023-02-22T12:36:40.332Z,9.36
2023-02-22T12:41:39.117Z,9.27
2023-02-22T12:46:36.706Z,9.14
2023-02-22T12:51:29.540Z,9.06
2023-02-22T12:56:28.158Z,8.87
2023-02-22T13:01:30.282Z,8.76
2023-02-22T13:06:51.119Z,8.76
2023-02-22T13:11:52.915Z,8.82
2023-02-22T13:17:11.002Z,8.99
2023-02-22T13:22:42.381Z,9.38
2023-02-22T13:27:40.746Z,9.75
2023-02-22T13:32:56.551Z,9.94
2023-02-22T13:37:48.132Z,9.92
2023-02-22T13:42:51.698Z,9.71
2023-02-22T13:48:24.498Z,9.49
2023-02-22T13:53:27.443Z,9.36
2023-02-22T13:58:19.097Z,9.25
2023-02-22T14:03:13.442Z,9.29
2023-02-22T14:08:06.032Z,9.19
2023-02-22T14:13:05.371Z,8.97
2023-02-22T14:17:56.944Z,8.86
2023-02-22T14:22:50.810Z,8.84
2023-02-22T14:27:42.756Z,8.93
2023-02-22T14:32:35.599Z,9.08
2023-02-22T14:37:31.167Z,9.28
2023-02-22T14:42:25.882Z,9.56
2023-02-22T14:47:29.661Z,9.62
2023-02-22T14:52:28.511Z,9.49
2023-02-22T14:57:29.564Z,9.40
2023-02-22T15:02:26.080Z,9.32
2023-02-22T15:07:31.011Z,9.23
2023-02-22T15:12:31.416Z,9.21
2023-02-22T15:17:25.045Z,9.16
2023-02-22T15:22:32.539Z,9.12
2023-02-22T15:27:24.360Z,9.08
2023-02-22T15:32:53.432Z,8.99
2023-02-22T15:38:11.489Z,8.88
2023-02-22T15:43:10.654Z,8.73
2023-02-22T15:48:03.416Z,8.55
2023-02-22T15:53:02.435Z,8.46
2023-02-22T15:57:54.451Z,8.37
2023-02-22T16:02:46.582Z,8.23
2023-02-22T16:07:50.316Z,8.10
2023-02-22T16:12:42.173Z,7.98
2023-02-22T16:18:02.418Z,7.92
2023-02-22T16:22:57.786Z,7.84
2023-02-22T16:28:01.607Z,7.82
2023-02-22T16:32:56.255Z,7.81
2023-02-22T16:37:50.963Z,7.78
2023-02-22T16:42:42.565Z,7.71
2023-02-22T16:47:34.187Z,7.66
2023-02-22T16:52:28.267Z,7.63
2023-02-22T16:57:22.735Z,7.59
2023-02-22T17:02:15.634Z,7.56
2023-02-22T17:07:09.367Z,7.47
2023-02-22T17:12:02.351Z,7.33
2023-02-22T17:16:53.970Z,7.31
2023-02-22T17:21:45.835Z,7.26
2023-02-22T17:26:37.463Z,7.26
2023-02-22T17:31:30.608Z,7.23
2023-02-22T17:36:23.618Z,7.19
2023-02-22T17:41:15.462Z,7.05
2023-02-22T17:46:08.186Z,6.97
2023-02-22T17:51:04.391Z,6.92
2023-02-22T17:55:55.997Z,6.87
2023-02-22T18:00:49.930Z,6.79
2023-02-22T18:05:47.387Z,6.75
2023-02-22T18:10:40.050Z,6.74
2023-02-22T18:15:35.731Z,6.70
2023-02-22T18:20:31.238Z,6.59
2023-02-22T18:25:22.885Z,6.53
2023-02-22T18:30:14.611Z,6.50
2023-02-22T18:35:07.425Z,6.40
2023-02-22T18:39:59.732Z,6.33
2023-02-22T18:44:52.730Z,6.34
2023-02-22T18:49:44.500Z,6.39
2023-02-22T18:54:38.536Z,6.39
2023-02-22T18:59:30.267Z,6.38
2023-02-22T19:04:22.030Z,6.35
2023-02-22T19:09:13.679Z,6.31
2023-02-22T19:14:05.357Z,6.31
2023-02-22T19:18:58.336Z,6.29
2023-02-22T19:23:51.014Z,6.27
2023-02-22T19:28:42.621Z,6.30
2023-02-22T19:33:34.226Z,6.34
2023-02-22T19:38:25.934Z,6.34
2023-02-22T19:43:17.566Z,6.31
2023-02-22T19:48:09.158Z,6.31
2023-02-22T19:53:00.787Z,6.27
2023-02-22T19:57:52.448Z,6.30
2023-02-22T20:02:44.008Z,6.32
2023-02-22T20:07:36.614Z,6.24
2023-02-22T20:12:28.228Z,6.22
2023-02-22T20:17:19.877Z,6.14
2023-02-22T20:22:11.888Z,6.04
2023-02-22T20:27:03.601Z,5.95
2023-02-22T20:31:57.874Z,5.91
2023-02-22T20:36:49.615Z,5.84
2023-02-22T20:41:43.618Z,5.73
2023-02-22T20:46:38.412Z,5.61
2023-02-22T20:51:30.677Z,5.53
2023-02-22T20:56:24.262Z,5.47
2023-02-22T21:01:19.526Z,5.44
2023-02-22T21:06:15.652Z,5.40
2023-02-22T21:11:15.375Z,5.34
2023-02-22T21:16:10.405Z,5.32
2023-02-22T21:21:10.460Z,5.34
2023-02-22T21:26:02.229Z,5.34
2023-02-22T21:35:49.488Z,5.33
2023-02-22T21:40:41.985Z,5.34
2023-02-22T21:45:35.417Z,5.34
2023-02-22T21:50:30.198Z,5.32
2023-02-22T21:55:22.802Z,5.31
2023-02-22T22:00:18.588Z,5.31
2023-02-22T22:05:10.229Z,5.40
2023-02-22T22:10:03.163Z,5.46
2023-02-22T22:14:55.384Z,5.51
2023-02-22T22:19:49.077Z,5.50
2023-02-22T22:24:45.704Z,5.40
2023-02-22T22:29:37.619Z,5.35
2023-02-22T22:34:29.886Z,5.27
2023-02-22T22:39:21.621Z,5.29
2023-02-22T22:44:15.833Z,5.32
2023-02-22T22:49:10.276Z,5.36
2023-02-22T22:54:02.381Z,5.38
2023-02-22T22:58:58.977Z,5.36
2023-02-22T23:03:58.259Z,5.30
2023-02-22T23:09:10.414Z,5.33
2023-02-22T23:14:04.865Z,5.33
2023-02-22T23:18:57.091Z,5.31
2023-02-22T23:23:52.550Z,5.32
2023-02-22T23:28:46.336Z,5.28
2023-02-22T23:33:38.514Z,5.16
2023-02-22T23:38:31.611Z,5.09
2023-02-22T23:43:25.785Z,4.98
2023-02-22T23:48:20.665Z,4.87
2023-02-22T23:53:15.337Z,4.80
2023-02-22T23:58:07.225Z,4.72
